createdAt,value
2018-08-17T00:00:00.598Z,18.48
2018-08-17T00:01:10.443Z,18.42
2018-08-17T00:02:20.017Z,18.5
2018-08-17T00:03:29.317Z,18.5
2018-08-17T00:04:39.435Z,18.45
2018-08-17T00:05:49.015Z,18.41
2018-08-17T00:06:59.133Z,18.45
2018-08-17T00:08:08.977Z,18.41
2018-08-17T00:09:18.819Z,18.39
2018-08-17T00:10:28.661Z,18.36
2018-08-17T00:11:37.970Z,18.3
2018-08-17T00:12:47.815Z,18.33
2018-08-17T00:13:57.388Z,18.29
2018-08-17T00:15:06.967Z,18.33
2018-08-17T00:16:17.124Z,18.23
2018-08-17T00:17:26.701Z,18.26
2018-08-17T00:18:36.541Z,18.14
2018-08-17T00:19:45.850Z,18.23
2018-08-17T00:20:55.706Z,18.26
2018-08-17T00:22:05.338Z,18.2
2018-08-17T00:23:14.641Z,18.2
2018-08-17T00:24:24.769Z,18.2
2018-08-17T00:25:34.601Z,18.17
2018-08-17T00:26:44.441Z,18.18
2018-08-17T00:27:54.288Z,18.14
2018-08-17T00:29:04.136Z,18.17
2018-08-17T00:30:13.173Z,18.18
2018-08-17T00:31:23.294Z,18.12
2018-08-17T00:32:32.594Z,18
2018-08-17T00:33:42.757Z,18.03
2018-08-17T00:34:52.068Z,18.07
2018-08-17T00:36:01.641Z,17.97
2018-08-17T00:37:11.484Z,18.07
2018-08-17T00:38:20.789Z,18.02
2018-08-17T00:39:30.631Z,17.97
2018-08-17T00:40:40.203Z,18.07
2018-08-17T00:41:49.775Z,18
2018-08-17T00:42:59.347Z,17.97
2018-08-17T00:44:08.643Z,18.02
2018-08-17T00:45:18.499Z,18
2018-08-17T00:46:28.616Z,18.08
2018-08-17T00:47:38.186Z,18.07
2018-08-17T00:48:48.023Z,17.97
2018-08-17T00:49:58.197Z,17.97
2018-08-17T00:51:07.789Z,17.95
2018-08-17T00:52:17.367Z,17.93
2018-08-17T00:53:27.211Z,17.92
2018-08-17T00:54:36.779Z,17.92
2018-08-17T00:55:46.082Z,17.9
2018-08-17T00:56:55.927Z,17.97
2018-08-17T00:58:05.509Z,17.9
2018-08-17T00:59:14.540Z,17.78
2018-08-17T01:00:24.113Z,17.81
2018-08-17T01:01:33.973Z,17.75
2018-08-17T01:02:43.822Z,17.79
2018-08-17T01:03:53.124Z,17.77
2018-08-17T01:05:02.702Z,17.72
2018-08-17T01:06:12.278Z,17.63
2018-08-17T01:07:22.119Z,17.72
2018-08-17T01:08:32.233Z,17.74
2018-08-17T01:09:42.358Z,17.78
2018-08-17T01:10:52.236Z,17.68
2018-08-17T01:12:02.079Z,17.72
2018-08-17T01:13:11.927Z,17.68
2018-08-17T01:14:21.789Z,17.62
2018-08-17T01:15:31.903Z,17.63
2018-08-17T01:16:41.201Z,17.7
2018-08-17T01:17:50.780Z,17.63
2018-08-17T01:19:00.631Z,17.56
2018-08-17T01:20:10.748Z,17.56
2018-08-17T01:21:20.607Z,17.54
2018-08-17T01:22:29.638Z,17.63
2018-08-17T01:23:39.206Z,17.56
2018-08-17T01:24:49.054Z,17.56
2018-08-17T01:25:58.366Z,17.62
2018-08-17T01:27:08.205Z,17.56
2018-08-17T01:28:18.051Z,17.55
2018-08-17T01:29:27.631Z,17.63
2018-08-17T01:30:37.751Z,17.55
2018-08-17T01:31:47.320Z,17.55
2018-08-17T01:32:57.164Z,17.51
2018-08-17T01:34:06.738Z,17.49
2018-08-17T01:35:16.308Z,17.46
2018-08-17T01:36:26.157Z,17.51
2018-08-17T01:37:35.473Z,17.44
2018-08-17T01:38:45.040Z,17.44
2018-08-17T01:39:54.623Z,17.44
2018-08-17T01:41:04.735Z,17.46
2018-08-17T01:42:14.579Z,17.43
2018-08-17T01:43:23.879Z,17.38
2018-08-17T01:44:33.450Z,17.46
2018-08-17T01:45:42.754Z,17.44
2018-08-17T01:46:52.325Z,17.46
2018-08-17T01:48:01.904Z,17.44
2018-08-17T01:49:11.477Z,17.44
2018-08-17T01:50:21.053Z,17.48
2018-08-17T01:51:30.356Z,17.46
2018-08-17T01:52:39.924Z,17.52
2018-08-17T01:53:49.769Z,17.49
2018-08-17T01:54:59.351Z,17.49
2018-08-17T01:56:08.932Z,17.48
2018-08-17T01:57:18.780Z,17.49
2018-08-17T01:58:28.083Z,17.49
2018-08-17T01:59:37.931Z,17.51
2018-08-17T02:00:47.502Z,17.37
2018-08-17T02:01:57.669Z,17.44
2018-08-17T02:03:07.236Z,17.43
2018-08-17T02:04:16.809Z,17.33
2018-08-17T02:05:26.919Z,17.49
2018-08-17T02:06:36.489Z,17.48
2018-08-17T02:07:46.335Z,17.43
2018-08-17T02:08:56.178Z,17.49
2018-08-17T02:10:06.298Z,17.41
2018-08-17T02:11:16.148Z,17.37
2018-08-17T02:12:25.985Z,17.44
2018-08-17T02:13:35.821Z,17.36
2018-08-17T02:14:46.104Z,17.4
2018-08-17T02:15:56.525Z,17.44
2018-08-17T02:17:06.423Z,17.31
2018-08-17T02:18:16.267Z,17.36
2018-08-17T02:19:25.569Z,17.38
2018-08-17T02:20:35.153Z,17.34
2018-08-17T02:21:45.002Z,17.36
2018-08-17T02:22:55.165Z,17.31
2018-08-17T02:24:05.285Z,17.33
2018-08-17T02:25:15.133Z,17.33
2018-08-17T02:26:24.988Z,17.36
2018-08-17T02:27:35.107Z,17.33
2018-08-17T02:28:45.281Z,17.33
2018-08-17T02:29:55.169Z,17.38
2018-08-17T02:31:04.788Z,17.33
2018-08-17T02:32:14.364Z,17.38
2018-08-17T02:33:24.211Z,17.43
2018-08-17T02:34:34.065Z,17.37
2018-08-17T02:35:43.655Z,17.4
2018-08-17T02:36:53.565Z,17.36
2018-08-17T02:38:03.688Z,17.43
2018-08-17T02:39:13.278Z,17.31
2018-08-17T02:40:23.122Z,17.33
2018-08-17T02:41:32.702Z,17.31
2018-08-17T02:42:42.018Z,17.31
2018-08-17T02:43:51.867Z,17.3
2018-08-17T02:45:02.005Z,17.3
2018-08-17T02:46:11.868Z,17.16
2018-08-17T02:47:21.463Z,17.23
2018-08-17T02:48:31.326Z,17.22
2018-08-17T02:49:41.173Z,17.16
2018-08-17T02:50:51.029Z,17.14
2018-08-17T02:52:00.887Z,17.19
2018-08-17T02:53:10.460Z,17.07
2018-08-17T02:54:20.581Z,17.12
2018-08-17T02:55:30.696Z,17.06
2018-08-17T02:56:40.572Z,17.14
2018-08-17T02:57:50.698Z,17.08
2018-08-17T02:59:00.002Z,17.15
2018-08-17T03:00:09.330Z,17.06
2018-08-17T03:01:19.468Z,17
2018-08-17T03:02:29.312Z,17
2018-08-17T03:03:38.886Z,17.03
2018-08-17T03:04:48.739Z,17.01
2018-08-17T03:05:58.589Z,16.88
2018-08-17T03:07:08.459Z,16.91
2018-08-17T03:08:18.039Z,17.03
2018-08-17T03:09:27.892Z,16.91
2018-08-17T03:10:37.747Z,16.88
2018-08-17T03:11:47.324Z,16.94
2018-08-17T03:12:56.637Z,16.93
2018-08-17T03:14:05.944Z,16.88
2018-08-17T03:15:15.856Z,16.93
2018-08-17T03:16:25.434Z,16.89
2018-08-17T03:17:35.286Z,16.96
2018-08-17T03:18:45.418Z,16.88
2018-08-17T03:19:55.534Z,16.98
2018-08-17T03:21:05.662Z,16.98
2018-08-17T03:22:14.964Z,16.91
2018-08-17T03:23:24.003Z,16.93
2018-08-17T03:24:33.308Z,16.85
2018-08-17T03:25:43.157Z,16.83
2018-08-17T03:26:52.735Z,16.88
2018-08-17T03:28:02.578Z,16.85
2018-08-17T03:29:12.685Z,16.82
2018-08-17T03:30:22.265Z,16.81
2018-08-17T03:31:32.128Z,16.76
2018-08-17T03:32:41.430Z,16.75
2018-08-17T03:33:51.008Z,16.76
2018-08-17T03:35:00.852Z,16.85
2018-08-17T03:36:10.425Z,16.93
2018-08-17T03:37:21.001Z,16.83
2018-08-17T03:38:30.878Z,16.85
2018-08-17T03:39:40.725Z,16.83
2018-08-17T03:40:50.306Z,16.83
2018-08-17T03:42:00.153Z,16.83
2018-08-17T03:43:09.468Z,16.82
2018-08-17T03:44:19.042Z,16.89
2018-08-17T03:45:28.624Z,16.83
2018-08-17T03:46:38.199Z,16.93
2018-08-17T03:47:47.770Z,16.98
2018-08-17T03:48:57.072Z,16.96
2018-08-17T03:50:06.486Z,16.96
2018-08-17T03:51:16.059Z,16.89
2018-08-17T03:52:25.904Z,16.93
2018-08-17T03:53:35.760Z,16.97
2018-08-17T03:54:45.605Z,17
2018-08-17T03:55:55.456Z,17.11
2018-08-17T03:57:05.298Z,16.96
2018-08-17T03:58:15.413Z,17.06
2018-08-17T03:59:24.448Z,17.03
2018-08-17T04:00:33.484Z,17.12
2018-08-17T04:01:43.327Z,17.04
2018-08-17T04:02:52.908Z,17.15
2018-08-17T04:04:02.487Z,17.04
2018-08-17T04:05:12.066Z,17.15
2018-08-17T04:06:21.370Z,17.06
2018-08-17T04:07:31.493Z,17.01
2018-08-17T04:08:41.072Z,17.07
2018-08-17T04:09:50.646Z,17.04
2018-08-17T04:11:00.496Z,17.11
2018-08-17T04:12:09.801Z,17.08
2018-08-17T04:13:19.375Z,17.03
2018-08-17T04:14:29.222Z,17.03
2018-08-17T04:15:39.553Z,17.04
2018-08-17T04:16:49.734Z,17.16
2018-08-17T04:17:59.038Z,17.08
2018-08-17T04:19:08.934Z,17.06
2018-08-17T04:20:18.505Z,17.12
2018-08-17T04:21:28.073Z,17.15
2018-08-17T04:22:37.926Z,17.22
2018-08-17T04:23:47.593Z,17.21
2018-08-17T04:24:57.852Z,17.21
2018-08-17T04:26:07.428Z,17.33
2018-08-17T04:27:17.274Z,17.3
2018-08-17T04:28:26.588Z,17.3
2018-08-17T04:29:36.159Z,17.23
2018-08-17T04:30:46.001Z,17.31
2018-08-17T04:31:55.309Z,17.38
2018-08-17T04:33:04.884Z,17.41
2018-08-17T04:34:15.008Z,17.46
2018-08-17T04:35:25.107Z,17.36
2018-08-17T04:36:34.491Z,17.46
2018-08-17T04:37:43.789Z,17.44
2018-08-17T04:38:53.640Z,17.48
2018-08-17T04:40:03.753Z,17.37
2018-08-17T04:41:13.866Z,17.43
2018-08-17T04:42:23.707Z,17.51
2018-08-17T04:43:33.277Z,17.54
2018-08-17T04:44:43.279Z,17.52
2018-08-17T04:45:52.045Z,17.59
2018-08-17T04:47:01.618Z,17.55
2018-08-17T04:48:11.472Z,17.49
2018-08-17T04:49:21.569Z,17.68
2018-08-17T04:50:31.700Z,17.68
2018-08-17T04:51:41.865Z,17.68
2018-08-17T04:52:51.704Z,17.7
2018-08-17T04:54:01.547Z,17.68
2018-08-17T04:55:10.854Z,17.7
2018-08-17T04:56:20.997Z,17.68
2018-08-17T04:57:30.400Z,17.68
2018-08-17T04:58:39.991Z,17.72
2018-08-17T04:59:49.572Z,17.72
2018-08-17T05:00:58.601Z,17.66
2018-08-17T05:02:08.451Z,17.77
2018-08-17T05:03:18.077Z,17.82
2018-08-17T05:04:27.989Z,17.87
2018-08-17T05:05:37.558Z,17.74
2018-08-17T05:06:46.860Z,17.66
2018-08-17T05:07:56.427Z,17.64
2018-08-17T05:09:06.639Z,17.74
2018-08-17T05:10:16.023Z,17.77
2018-08-17T05:11:25.920Z,17.79
2018-08-17T05:12:35.767Z,17.77
2018-08-17T05:13:45.884Z,17.72
2018-08-17T05:14:55.731Z,17.74
2018-08-17T05:16:05.580Z,17.72
2018-08-17T05:17:15.692Z,17.66
2018-08-17T05:18:25.259Z,17.71
2018-08-17T05:19:35.118Z,17.71
2018-08-17T05:20:44.688Z,17.77
2018-08-17T05:21:54.313Z,17.77
2018-08-17T05:23:03.620Z,17.79
2018-08-17T05:24:13.475Z,17.79
2018-08-17T05:25:23.320Z,17.75
2018-08-17T05:26:32.922Z,17.86
2018-08-17T05:27:42.200Z,17.9
2018-08-17T05:28:51.508Z,17.89
2018-08-17T05:30:01.369Z,17.87
2018-08-17T05:31:11.475Z,17.86
2018-08-17T05:32:21.317Z,17.93
2018-08-17T05:33:30.890Z,17.92
2018-08-17T05:34:40.732Z,17.99
2018-08-17T05:35:50.669Z,18.07
2018-08-17T05:37:00.940Z,18.03
2018-08-17T05:38:10.514Z,18.18
2018-08-17T05:39:20.627Z,18.21
2018-08-17T05:40:30.519Z,18.2
2018-08-17T05:41:40.093Z,18.17
2018-08-17T05:42:49.727Z,18.15
2018-08-17T05:43:59.031Z,18.36
2018-08-17T05:45:09.257Z,18.3
2018-08-17T05:46:19.644Z,18.42
2018-08-17T05:47:29.228Z,18.47
2018-08-17T05:48:39.081Z,18.52
2018-08-17T05:49:48.920Z,18.52
2018-08-17T05:50:58.230Z,18.57
2018-08-17T05:52:07.806Z,18.55
2018-08-17T05:53:17.645Z,18.66
2018-08-17T05:54:27.221Z,18.55
2018-08-17T05:55:36.795Z,18.58
2018-08-17T05:56:46.200Z,18.69
2018-08-17T05:57:56.443Z,18.63
2018-08-17T05:59:06.334Z,18.67
2018-08-17T06:00:16.183Z,18.73
2018-08-17T06:01:26.029Z,18.67
2018-08-17T06:02:35.892Z,18.69
2018-08-17T06:03:46.024Z,18.82
2018-08-17T06:04:56.153Z,18.78
2018-08-17T06:06:05.732Z,18.75
2018-08-17T06:07:15.038Z,18.84
2018-08-17T06:08:24.885Z,18.82
2018-08-17T06:09:34.456Z,18.82
2018-08-17T06:10:44.387Z,18.87
2018-08-17T06:11:54.765Z,18.84
2018-08-17T06:13:04.075Z,18.87
2018-08-17T06:14:14.194Z,18.95
2018-08-17T06:15:23.502Z,18.92
2018-08-17T06:16:33.094Z,18.94
2018-08-17T06:17:42.455Z,19.08
2018-08-17T06:18:52.297Z,19.08
2018-08-17T06:20:01.877Z,19.08
2018-08-17T06:21:11.723Z,19.11
2018-08-17T06:22:21.310Z,19.08
2018-08-17T06:23:30.946Z,19.1
2018-08-17T06:24:40.520Z,19.08
2018-08-17T06:25:50.098Z,19.06
2018-08-17T06:26:59.948Z,19.16
2018-08-17T06:28:10.085Z,19.18
2018-08-17T06:29:19.658Z,19.23
2018-08-17T06:30:29.509Z,19.25
2018-08-17T06:31:39.535Z,19.31
2018-08-17T06:32:49.119Z,19.32
2018-08-17T06:33:58.707Z,19.33
2018-08-17T06:35:08.338Z,19.33
2018-08-17T06:36:18.600Z,19.32
2018-08-17T06:37:29.085Z,19.32
2018-08-17T06:38:38.667Z,19.39
2018-08-17T06:39:48.527Z,19.41
2018-08-17T06:40:58.376Z,19.37
2018-08-17T06:42:08.231Z,19.44
2018-08-17T06:43:18.087Z,19.44
2018-08-17T06:44:27.659Z,19.41
2018-08-17T06:45:37.503Z,19.5
2018-08-17T06:46:47.664Z,19.56
2018-08-17T06:47:57.240Z,19.51
2018-08-17T06:49:07.096Z,19.56
2018-08-17T06:50:16.667Z,19.48
2018-08-17T06:51:25.970Z,19.55
2018-08-17T06:52:35.820Z,19.48
2018-08-17T06:53:45.664Z,19.55
2018-08-17T06:54:55.511Z,19.54
2018-08-17T06:56:05.364Z,19.62
2018-08-17T06:57:15.764Z,19.66
2018-08-17T06:58:26.031Z,19.71
2018-08-17T06:59:35.338Z,19.61
2018-08-17T07:00:44.645Z,19.73
2018-08-17T07:01:53.946Z,19.73
2018-08-17T07:03:03.787Z,19.8
2018-08-17T07:04:13.670Z,19.77
2018-08-17T07:05:23.512Z,19.74
2018-08-17T07:06:33.083Z,19.88
2018-08-17T07:07:42.934Z,19.92
2018-08-17T07:08:53.107Z,19.91
2018-08-17T07:10:02.366Z,19.99
2018-08-17T07:11:11.950Z,20.06
2018-08-17T07:12:22.064Z,20.05
2018-08-17T07:13:31.909Z,20.05
2018-08-17T07:14:41.219Z,20.16
2018-08-17T07:15:50.793Z,20.14
2018-08-17T07:17:01.033Z,20.13
2018-08-17T07:18:10.625Z,20.2
2018-08-17T07:19:19.935Z,20.17
2018-08-17T07:20:29.787Z,20.2
2018-08-17T07:21:39.502Z,20.18
2018-08-17T07:22:49.333Z,20.21
2018-08-17T07:23:59.174Z,20.23
2018-08-17T07:25:09.304Z,20.26
2018-08-17T07:26:19.433Z,20.33
2018-08-17T07:27:29.278Z,20.33
2018-08-17T07:28:38.587Z,20.28
2018-08-17T07:29:48.161Z,20.32
2018-08-17T07:30:57.741Z,20.38
2018-08-17T07:32:07.593Z,20.32
2018-08-17T07:33:17.165Z,20.32
2018-08-17T07:34:26.471Z,20.16
2018-08-17T07:35:35.849Z,20.33
2018-08-17T07:36:45.796Z,20.23
2018-08-17T07:37:55.657Z,20.32
2018-08-17T07:39:05.281Z,20.31
2018-08-17T07:40:15.143Z,20.35
2018-08-17T07:41:24.996Z,20.33
2018-08-17T07:42:34.340Z,20.21
2018-08-17T07:43:44.186Z,20.29
2018-08-17T07:44:54.031Z,20.24
2018-08-17T07:46:03.635Z,20.28
2018-08-17T07:47:12.945Z,20.31
2018-08-17T07:48:23.202Z,20.23
2018-08-17T07:49:33.402Z,20.2
2018-08-17T07:50:43.252Z,20.18
2018-08-17T07:51:53.370Z,20.2
2018-08-17T07:53:03.222Z,20.2
2018-08-17T07:54:13.074Z,20.21
2018-08-17T07:55:23.241Z,20.24
2018-08-17T07:56:32.591Z,20.23
2018-08-17T07:57:42.707Z,20.18
2018-08-17T07:58:52.840Z,20.13
2018-08-17T08:00:03.040Z,20.17
2018-08-17T08:01:12.888Z,20.23
2018-08-17T08:02:22.252Z,20.21
2018-08-17T08:03:31.564Z,20.2
2018-08-17T08:04:41.407Z,20.29
2018-08-17T08:05:50.976Z,20.21
2018-08-17T08:07:00.822Z,20.35
2018-08-17T08:08:10.404Z,20.32
2018-08-17T08:09:20.256Z,20.29
2018-08-17T08:10:30.108Z,20.32
2018-08-17T08:11:40.035Z,20.26
2018-08-17T08:12:49.611Z,20.21
2018-08-17T08:13:58.923Z,20.32
2018-08-17T08:15:08.779Z,20.21
2018-08-17T08:16:18.362Z,20.21
2018-08-17T08:17:27.671Z,20.24
2018-08-17T08:18:37.251Z,20.29
2018-08-17T08:19:47.148Z,20.1
2018-08-17T08:20:57.262Z,20.28
2018-08-17T08:22:07.113Z,20.1
2018-08-17T08:23:16.963Z,20.18
2018-08-17T08:24:26.548Z,20.05
2018-08-17T08:25:36.124Z,20.02
2018-08-17T08:26:45.704Z,20.06
2018-08-17T08:27:54.743Z,20.01
2018-08-17T08:29:04.319Z,20.05
2018-08-17T08:30:14.167Z,19.94
2018-08-17T08:31:24.019Z,19.95
2018-08-17T08:32:34.351Z,19.84
2018-08-17T08:33:44.137Z,19.8
2018-08-17T08:34:54.261Z,19.71
2018-08-17T08:36:03.836Z,19.65
2018-08-17T08:37:13.950Z,19.58
2018-08-17T08:38:24.081Z,19.59
2018-08-17T08:39:33.391Z,19.51
2018-08-17T08:40:43.233Z,19.41
2018-08-17T08:41:53.356Z,19.41
2018-08-17T08:43:03.579Z,19.08
2018-08-17T08:44:12.886Z,18.87
2018-08-17T08:45:22.764Z,18.78
2018-08-17T08:46:32.672Z,18.69
2018-08-17T08:47:42.254Z,18.57
2018-08-17T08:48:52.368Z,18.52
2018-08-17T08:50:01.964Z,18.52
2018-08-17T08:51:11.805Z,18.41
2018-08-17T08:52:21.384Z,18.39
2018-08-17T08:53:31.500Z,18.33
2018-08-17T08:54:41.398Z,18.17
2018-08-17T08:55:51.026Z,18.33
2018-08-17T08:57:00.113Z,18.2
2018-08-17T08:58:09.690Z,18.15
2018-08-17T08:59:19.800Z,18.05
2018-08-17T09:00:29.649Z,17.93
2018-08-17T09:01:39.611Z,17.72
2018-08-17T09:02:50.084Z,17.56
2018-08-17T09:04:00.213Z,17.52
2018-08-17T09:05:09.789Z,17.43
2018-08-17T09:06:19.956Z,17.43
2018-08-17T09:07:29.531Z,17.3
2018-08-17T09:08:39.697Z,17.44
2018-08-17T09:09:49.282Z,17.16
2018-08-17T09:10:58.317Z,17.38
2018-08-17T09:12:08.164Z,17.26
2018-08-17T09:13:17.737Z,17.15
2018-08-17T09:14:27.859Z,17.08
2018-08-17T09:15:37.446Z,17.21
2018-08-17T09:16:47.570Z,17.16
2018-08-17T09:17:57.415Z,17.3
2018-08-17T09:19:07.265Z,17.31
2018-08-17T09:20:17.264Z,17.28
2018-08-17T09:21:27.417Z,17.33
2018-08-17T09:22:37.522Z,17.22
2018-08-17T09:23:47.639Z,17.33
2018-08-17T09:24:57.748Z,17.41
2018-08-17T09:26:07.605Z,17.4
2018-08-17T09:27:17.183Z,17.49
2018-08-17T09:28:27.301Z,17.58
2018-08-17T09:29:37.153Z,17.58
2018-08-17T09:30:46.995Z,17.71
2018-08-17T09:31:56.569Z,17.56
2018-08-17T09:33:06.146Z,17.62
2018-08-17T09:34:15.447Z,17.63
2018-08-17T09:35:25.563Z,17.56
2018-08-17T09:36:35.137Z,17.51
2018-08-17T09:37:44.711Z,17.75
2018-08-17T09:38:54.296Z,17.54
2018-08-17T09:40:03.926Z,17.58
2018-08-17T09:41:13.549Z,17.58
2018-08-17T09:42:23.393Z,17.63
2018-08-17T09:43:33.241Z,17.51
2018-08-17T09:44:42.553Z,17.52
2018-08-17T09:45:52.398Z,17.49
2018-08-17T09:47:02.299Z,17.63
2018-08-17T09:48:11.883Z,17.63
2018-08-17T09:49:21.186Z,17.55
2018-08-17T09:50:30.217Z,17.7
2018-08-17T09:51:39.794Z,17.66
2018-08-17T09:52:49.686Z,17.72
2018-08-17T09:53:59.799Z,17.64
2018-08-17T09:55:09.915Z,17.64
2018-08-17T09:56:20.064Z,17.66
2018-08-17T09:57:29.750Z,17.9
2018-08-17T09:58:39.701Z,17.9
2018-08-17T09:59:49.285Z,17.87
2018-08-17T10:00:58.577Z,17.84
2018-08-17T10:02:07.610Z,17.74
2018-08-17T10:03:17.187Z,17.71
2018-08-17T10:04:26.238Z,17.87
2018-08-17T10:05:36.090Z,17.89
2018-08-17T10:06:45.934Z,17.9
2018-08-17T10:07:56.049Z,17.96
2018-08-17T10:09:05.916Z,18.23
2018-08-17T10:10:15.791Z,17.92
2018-08-17T10:11:25.905Z,17.74
2018-08-17T10:12:35.747Z,18.08
2018-08-17T10:13:45.599Z,17.78
2018-08-17T10:14:55.174Z,17.77
2018-08-17T10:16:04.758Z,17.71
2018-08-17T10:17:14.605Z,17.64
2018-08-17T10:18:24.458Z,17.7
2018-08-17T10:19:34.034Z,18.02
2018-08-17T10:20:43.770Z,17.93
2018-08-17T10:21:55.561Z,17.9
2018-08-17T10:23:06.033Z,17.77
2018-08-17T10:24:15.618Z,17.89
2018-08-17T10:25:25.460Z,17.86
2018-08-17T10:26:35.601Z,17.87
2018-08-17T10:27:45.453Z,17.87
2018-08-17T10:28:55.030Z,17.86
2018-08-17T10:30:05.141Z,17.86
2018-08-17T10:31:14.440Z,17.92
2018-08-17T10:32:23.752Z,17.89
2018-08-17T10:33:33.069Z,17.89
2018-08-17T10:34:42.923Z,17.9
2018-08-17T10:35:52.774Z,17.84
2018-08-17T10:37:02.621Z,17.78
2018-08-17T10:38:12.201Z,17.93
2018-08-17T10:39:22.047Z,17.89
2018-08-17T10:40:32.183Z,17.9
2018-08-17T10:41:42.077Z,17.95
2018-08-17T10:42:51.921Z,18
2018-08-17T10:44:01.491Z,18.02
2018-08-17T10:45:11.077Z,18.11
2018-08-17T10:46:21.193Z,18.05
2018-08-17T10:47:31.059Z,18.2
2018-08-17T10:48:41.015Z,18.15
2018-08-17T10:49:50.751Z,18.5
2018-08-17T10:51:00.333Z,18.52
2018-08-17T10:52:10.189Z,18.42
2018-08-17T10:53:19.496Z,18.27
2018-08-17T10:54:29.350Z,18.42
2018-08-17T10:55:39.637Z,18.33
2018-08-17T10:56:49.632Z,18.39
2018-08-17T10:57:59.475Z,18.44
2018-08-17T10:59:09.373Z,18.57
2018-08-17T11:00:19.225Z,18.55
2018-08-17T11:01:28.802Z,18.62
2018-08-17T11:02:38.650Z,18.63
2018-08-17T11:03:48.496Z,18.67
2018-08-17T11:04:58.614Z,18.67
2018-08-17T11:06:07.918Z,18.65
2018-08-17T11:07:17.226Z,18.69
2018-08-17T11:08:26.801Z,18.66
2018-08-17T11:09:36.110Z,18.69
2018-08-17T11:10:45.683Z,18.7
2018-08-17T11:11:55.320Z,18.81
2018-08-17T11:13:05.167Z,18.82
2018-08-17T11:14:14.477Z,18.81
2018-08-17T11:15:23.790Z,18.98
2018-08-17T11:16:33.634Z,19.06
2018-08-17T11:17:43.219Z,19.14
2018-08-17T11:18:52.524Z,19.19
2018-08-17T11:20:02.643Z,19.26
2018-08-17T11:21:12.227Z,19.29
2018-08-17T11:22:22.346Z,19.31
2018-08-17T11:23:32.190Z,19.32
2018-08-17T11:24:42.304Z,19.36
2018-08-17T11:25:52.153Z,19.43
2018-08-17T11:27:02.004Z,19.4
2018-08-17T11:28:11.583Z,19.44
2018-08-17T11:29:21.159Z,19.4
2018-08-17T11:30:31.023Z,19.43
2018-08-17T11:31:40.885Z,19.48
2018-08-17T11:32:50.996Z,19.62
2018-08-17T11:34:00.583Z,19.63
2018-08-17T11:35:10.431Z,19.81
2018-08-17T11:36:20.280Z,19.84
2018-08-17T11:37:30.400Z,19.94
2018-08-17T11:38:39.979Z,20.03
2018-08-17T11:39:50.163Z,20.11
2018-08-17T11:41:00.024Z,20.32
2018-08-17T11:42:09.880Z,20.39
2018-08-17T11:43:19.461Z,20.35
2018-08-17T11:44:29.036Z,20.36
2018-08-17T11:45:38.886Z,20.36
2018-08-17T11:46:48.733Z,20.35
2018-08-17T11:47:58.310Z,20.28
2018-08-17T11:49:08.158Z,20.35
2018-08-17T11:50:17.196Z,20.42
2018-08-17T11:51:27.111Z,20.36
2018-08-17T11:52:37.226Z,20.43
2018-08-17T11:53:47.437Z,20.51
2018-08-17T11:54:57.137Z,20.52
2018-08-17T11:56:06.456Z,20.52
2018-08-17T11:57:16.031Z,20.51
2018-08-17T11:58:25.615Z,20.36
2018-08-17T11:59:35.734Z,20.38
2018-08-17T12:00:45.847Z,20.36
2018-08-17T12:01:56.054Z,20.42
2018-08-17T12:03:06.135Z,20.31
2018-08-17T12:04:15.720Z,20.47
2018-08-17T12:05:25.571Z,20.51
2018-08-17T12:06:35.709Z,20.32
2018-08-17T12:07:45.012Z,20.31
2018-08-17T12:08:54.862Z,20.38
2018-08-17T12:10:04.439Z,20.38
2018-08-17T12:11:14.565Z,20.33
2018-08-17T12:12:23.875Z,20.35
2018-08-17T12:13:33.179Z,20.26
2018-08-17T12:14:42.810Z,20.23
2018-08-17T12:15:52.662Z,20.17
2018-08-17T12:17:02.506Z,20.18
2018-08-17T12:18:12.081Z,20.29
2018-08-17T12:19:21.661Z,20.32
2018-08-17T12:20:31.246Z,20.24
2018-08-17T12:21:40.561Z,20.2
2018-08-17T12:22:50.418Z,20.17
2018-08-17T12:24:00.004Z,20.21
2018-08-17T12:25:10.086Z,20.26
2018-08-17T12:26:20.037Z,20.35
2018-08-17T12:27:30.153Z,20.18
2018-08-17T12:28:39.741Z,20.38
2018-08-17T12:29:49.584Z,20.35
2018-08-17T12:30:59.742Z,20.32
2018-08-17T12:32:09.851Z,20.32
2018-08-17T12:33:19.614Z,20.33
2018-08-17T12:34:29.462Z,20.42
2018-08-17T12:35:39.038Z,20.42
2018-08-17T12:36:48.617Z,20.42
2018-08-17T12:37:58.202Z,20.51
2018-08-17T12:39:07.239Z,20.66
2018-08-17T12:40:17.633Z,20.42
2018-08-17T12:41:27.480Z,20.48
2018-08-17T12:42:37.087Z,20.52
2018-08-17T12:43:46.455Z,20.51
2018-08-17T12:44:56.300Z,20.48
2018-08-17T12:46:06.177Z,20.47
2018-08-17T12:47:16.298Z,20.51
2018-08-17T12:48:26.144Z,20.39
2018-08-17T12:49:36.318Z,20.5
2018-08-17T12:50:45.907Z,20.51
2018-08-17T12:51:55.491Z,20.39
2018-08-17T12:53:05.610Z,20.47
2018-08-17T12:54:15.452Z,20.52
2018-08-17T12:55:25.082Z,20.5
2018-08-17T12:56:34.939Z,20.59
2018-08-17T12:57:44.782Z,20.55
2018-08-17T12:58:54.634Z,20.58
2018-08-17T13:00:04.218Z,20.5
2018-08-17T13:01:13.255Z,20.5
2018-08-17T13:02:22.839Z,20.47
2018-08-17T13:03:32.686Z,20.66
2018-08-17T13:04:42.271Z,20.64
2018-08-17T13:05:52.116Z,20.66
2018-08-17T13:07:01.971Z,20.7
2018-08-17T13:08:12.092Z,20.69
2018-08-17T13:09:22.218Z,20.73
2018-08-17T13:10:32.068Z,20.67
2018-08-17T13:11:41.644Z,20.72
2018-08-17T13:12:51.017Z,20.69
2018-08-17T13:14:00.611Z,20.69
2018-08-17T13:15:10.236Z,20.69
2018-08-17T13:16:19.826Z,20.55
2018-08-17T13:17:29.851Z,20.54
2018-08-17T13:18:39.429Z,20.41
2018-08-17T13:19:49.549Z,20.38
2018-08-17T13:20:59.391Z,20.38
2018-08-17T13:22:08.440Z,20.26
2018-08-17T13:23:18.303Z,20.28
2018-08-17T13:24:27.883Z,20.33
2018-08-17T13:25:37.726Z,20.33
2018-08-17T13:26:47.579Z,20.32
2018-08-17T13:27:57.153Z,20.36
2018-08-17T13:29:06.733Z,20.31
2018-08-17T13:30:16.638Z,20.5
2018-08-17T13:31:25.947Z,20.5
2018-08-17T13:32:35.789Z,20.52
2018-08-17T13:33:45.371Z,20.43
2018-08-17T13:34:55.226Z,20.43
2018-08-17T13:36:05.214Z,20.58
2018-08-17T13:37:15.577Z,20.64
2018-08-17T13:38:25.154Z,20.69
2018-08-17T13:39:35.277Z,20.7
2018-08-17T13:40:45.123Z,20.74
2018-08-17T13:41:54.747Z,20.82
2018-08-17T13:43:04.078Z,20.82
2018-08-17T13:44:13.927Z,20.89
2018-08-17T13:45:23.235Z,20.84
2018-08-17T13:46:32.540Z,20.91
2018-08-17T13:47:41.853Z,20.92
2018-08-17T13:48:51.453Z,20.97
2018-08-17T13:50:01.056Z,20.92
2018-08-17T13:51:10.368Z,20.98
2018-08-17T13:52:20.221Z,21.01
2018-08-17T13:53:29.803Z,20.98
2018-08-17T13:54:39.381Z,20.94
2018-08-17T13:55:48.956Z,20.91
2018-08-17T13:56:58.267Z,20.95
2018-08-17T13:58:08.118Z,20.95
2018-08-17T13:59:17.963Z,20.89
2018-08-17T14:00:27.275Z,20.89
2018-08-17T14:01:37.195Z,20.88
2018-08-17T14:02:47.041Z,20.97
2018-08-17T14:03:56.617Z,20.95
2018-08-17T14:05:06.202Z,20.89
2018-08-17T14:06:15.779Z,21.01
2018-08-17T14:07:25.896Z,20.95
2018-08-17T14:08:35.209Z,21.03
2018-08-17T14:09:45.054Z,21.03
2018-08-17T14:10:54.642Z,21.16
2018-08-17T14:12:04.226Z,21.19
2018-08-17T14:13:13.813Z,21.43
2018-08-17T14:14:23.662Z,21.47
2018-08-17T14:15:33.061Z,21.44
2018-08-17T14:16:42.779Z,21.47
2018-08-17T14:17:52.622Z,21.56
2018-08-17T14:19:02.485Z,21.64
2018-08-17T14:20:11.801Z,21.67
2018-08-17T14:21:21.382Z,21.67
2018-08-17T14:22:31.335Z,21.74
2018-08-17T14:23:40.907Z,21.84
2018-08-17T14:24:50.760Z,21.9
2018-08-17T14:26:00.339Z,21.83
2018-08-17T14:27:09.915Z,21.96
2018-08-17T14:28:19.502Z,22.14
2018-08-17T14:29:28.809Z,22.24
2018-08-17T14:30:38.682Z,22.21
2018-08-17T14:31:48.526Z,22.18
2018-08-17T14:32:58.131Z,22.33
2018-08-17T14:34:08.245Z,22.33
2018-08-17T14:35:18.613Z,22.33
2018-08-17T14:36:28.650Z,22.42
2018-08-17T14:37:38.233Z,22.49
2018-08-17T14:38:48.090Z,22.62
2018-08-17T14:39:57.677Z,22.76
2018-08-17T14:41:07.798Z,23.07
2018-08-17T14:42:17.912Z,23.31
2018-08-17T14:43:28.038Z,23.31
2018-08-17T14:44:37.886Z,23.47
2018-08-17T14:45:47.750Z,23.39
2018-08-17T14:46:56.528Z,23.65
2018-08-17T14:48:05.845Z,23.72
2018-08-17T14:49:15.711Z,23.98
2018-08-17T14:50:25.836Z,24.16
2018-08-17T14:51:35.426Z,24.37
2018-08-17T14:52:45.672Z,24.61
2018-08-17T14:53:55.528Z,24.85
2018-08-17T14:55:05.112Z,25.2
2018-08-17T14:56:14.969Z,25.43
2018-08-17T14:57:24.836Z,25.62
2018-08-17T14:58:35.009Z,25.52
2018-08-17T14:59:44.908Z,25.43
2018-08-17T15:00:54.499Z,25.3